AZU4371 SBCF-SBVT
Flight info
| Callsign | AZU4371 |
|---|---|
| Flight time | 0h 41m |
| Altitude | 29000 |
| Route | EVPAD UZ35 KIGOK |
| Aircraft | A20N/M-SDE2E3FGHIRWXY/LB1 |
Departure
| Time | 2026-04-29 01:29 |
|---|---|
| Airport | Tancredo Neves International Airport (SBCF) |
Arrival
| Time | 2026-04-29 02:11 |
|---|---|
| Airport | Eurico de Aguiar Salles International Airport (SBVT) |
| Time | Latitude | Longitude | Altitude | Speed | Heading |
|---|---|---|---|---|---|
| 2026-04-29 01:07 | -19.63145 | -43.96516 | 2748 ft | 0 kts | 49° |
| 2026-04-29 01:12 | -19.63146 | -43.96517 | 2748 ft | 1 kts | 49° |
| 2026-04-29 01:12 | -19.63155 | -43.96529 | 2748 ft | 2 kts | 49° |
| 2026-04-29 01:13 | -19.63165 | -43.96541 | 2748 ft | 2 kts | 49° |
| 2026-04-29 01:13 | -19.63174 | -43.96552 | 2748 ft | 1 kts | 49° |
| 2026-04-29 01:13 | -19.63181 | -43.96560 | 2748 ft | 2 kts | 30° |
| 2026-04-29 01:13 | -19.63196 | -43.96565 | 2748 ft | 2 kts | 360° |
| 2026-04-29 01:14 | -19.63210 | -43.96561 | 2749 ft | 1 kts | 329° |
| 2026-04-29 01:14 | -19.63215 | -43.96557 | 2749 ft | 1 kts | 316° |
| 2026-04-29 01:14 | -19.63218 | -43.96555 | 2748 ft | 0 kts | 321° |
| 2026-04-29 01:20 | -19.63215 | -43.96558 | 2749 ft | 2 kts | 322° |
| 2026-04-29 01:21 | -19.63189 | -43.96578 | 2748 ft | 6 kts | 321° |
| 2026-04-29 01:21 | -19.63148 | -43.96616 | 2748 ft | 8 kts | 318° |
| 2026-04-29 01:21 | -19.63097 | -43.96664 | 2748 ft | 10 kts | 318° |
| 2026-04-29 01:21 | -19.63037 | -43.96721 | 2748 ft | 12 kts | 318° |
| 2026-04-29 01:22 | -19.62971 | -43.96783 | 2748 ft | 13 kts | 319° |
| 2026-04-29 01:22 | -19.62900 | -43.96848 | 2748 ft | 13 kts | 319° |
| 2026-04-29 01:22 | -19.62831 | -43.96922 | 2748 ft | 14 kts | 299° |
| 2026-04-29 01:22 | -19.62805 | -43.97021 | 2748 ft | 13 kts | 278° |
| 2026-04-29 01:23 | -19.62834 | -43.97111 | 2748 ft | 12 kts | 261° |
| 2026-04-29 01:23 | -19.62792 | -43.97185 | 2748 ft | 12 kts | 318° |
| 2026-04-29 01:23 | -19.62728 | -43.97243 | 2748 ft | 11 kts | 319° |
| 2026-04-29 01:23 | -19.62666 | -43.97300 | 2748 ft | 11 kts | 319° |
| 2026-04-29 01:24 | -19.62603 | -43.97358 | 2748 ft | 12 kts | 319° |
| 2026-04-29 01:24 | -19.62536 | -43.97422 | 2748 ft | 13 kts | 318° |
| 2026-04-29 01:24 | -19.62462 | -43.97488 | 2748 ft | 14 kts | 320° |
| 2026-04-29 01:24 | -19.62386 | -43.97558 | 2748 ft | 14 kts | 319° |
| 2026-04-29 01:25 | -19.62306 | -43.97631 | 2748 ft | 15 kts | 317° |
| 2026-04-29 01:25 | -19.62298 | -43.97712 | 2748 ft | 0 kts | 232° |
| 2026-04-29 01:27 | -19.62308 | -43.97726 | 2748 ft | 4 kts | 231° |
| 2026-04-29 01:27 | -19.62339 | -43.97758 | 2748 ft | 7 kts | 217° |
| 2026-04-29 01:27 | -19.62394 | -43.97772 | 2748 ft | 8 kts | 165° |
| 2026-04-29 01:27 | -19.62436 | -43.97743 | 2748 ft | 0 kts | 139° |
| 2026-04-29 01:28 | -19.62463 | -43.97717 | 2748 ft | 29 kts | 139° |
| 2026-04-29 01:28 | -19.62813 | -43.97393 | 2748 ft | 100 kts | 139° |
| 2026-04-29 01:29 | -19.63495 | -43.96764 | 2749 ft | 157 kts | 139° |
| 2026-04-29 01:29 | -19.64434 | -43.95903 | 2867 ft | 192 kts | 139° |
| 2026-04-29 01:29 | -19.65452 | -43.94991 | 3534 ft | 193 kts | 139° |
| 2026-04-29 01:29 | -19.66456 | -43.94097 | 4394 ft | 186 kts | 138° |
| 2026-04-29 01:30 | -19.67428 | -43.93209 | 5079 ft | 190 kts | 136° |
| 2026-04-29 01:30 | -19.68446 | -43.92245 | 5541 ft | 206 kts | 136° |
| 2026-04-29 01:30 | -19.69569 | -43.91184 | 5959 ft | 227 kts | 136° |
| 2026-04-29 01:30 | -19.70811 | -43.90019 | 6402 ft | 249 kts | 137° |
| 2026-04-29 01:31 | -19.72168 | -43.88756 | 6945 ft | 267 kts | 137° |
| 2026-04-29 01:31 | -19.73595 | -43.87432 | 7676 ft | 277 kts | 137° |
| 2026-04-29 01:31 | -19.75041 | -43.86093 | 8547 ft | 280 kts | 138° |
| 2026-04-29 01:31 | -19.76512 | -43.84732 | 9429 ft | 283 kts | 138° |
| 2026-04-29 01:32 | -19.77979 | -43.83377 | 10229 ft | 287 kts | 137° |
| 2026-04-29 01:32 | -19.79511 | -43.81968 | 10799 ft | 299 kts | 139° |
| 2026-04-29 01:32 | -19.81210 | -43.80553 | 11130 ft | 320 kts | 143° |
| 2026-04-29 01:32 | -19.83115 | -43.79189 | 11520 ft | 336 kts | 145° |
| 2026-04-29 01:33 | -19.85082 | -43.77850 | 12106 ft | 343 kts | 146° |
| 2026-04-29 01:33 | -19.87113 | -43.76474 | 12720 ft | 348 kts | 146° |
| 2026-04-29 01:33 | -19.89172 | -43.75079 | 13297 ft | 354 kts | 145° |
| 2026-04-29 01:33 | -19.91253 | -43.73647 | 13835 ft | 358 kts | 142° |
| 2026-04-29 01:34 | -19.93059 | -43.71836 | 14142 ft | 358 kts | 126° |
| 2026-04-29 01:34 | -19.94283 | -43.69583 | 14201 ft | 355 kts | 110° |
| 2026-04-29 01:34 | -19.95165 | -43.67111 | 14205 ft | 354 kts | 108° |
| 2026-04-29 01:34 | -19.96000 | -43.64633 | 14201 ft | 354 kts | 108° |
| 2026-04-29 01:35 | -19.96830 | -43.62213 | 14203 ft | 354 kts | 108° |
| 2026-04-29 01:35 | -19.97691 | -43.59755 | 14205 ft | 354 kts | 109° |
| 2026-04-29 01:35 | -19.98476 | -43.57285 | 14199 ft | 352 kts | 102° |
| 2026-04-29 01:35 | -19.98863 | -43.54708 | 14198 ft | 350 kts | 91° |
| 2026-04-29 01:36 | -19.98852 | -43.52143 | 14199 ft | 348 kts | 85° |
| 2026-04-29 01:36 | -19.98713 | -43.49582 | 14195 ft | 349 kts | 85° |
| 2026-04-29 01:36 | -19.98564 | -43.47026 | 14193 ft | 349 kts | 85° |
| 2026-04-29 01:36 | -19.98420 | -43.44432 | 14295 ft | 354 kts | 85° |
| 2026-04-29 01:37 | -19.98280 | -43.41790 | 14892 ft | 357 kts | 85° |
| 2026-04-29 01:37 | -19.98145 | -43.39179 | 15550 ft | 358 kts | 85° |
| 2026-04-29 01:37 | -19.98008 | -43.36522 | 16119 ft | 362 kts | 85° |
| 2026-04-29 01:37 | -19.97869 | -43.33848 | 16645 ft | 366 kts | 85° |
| 2026-04-29 01:38 | -19.97730 | -43.31136 | 17172 ft | 370 kts | 85° |
| 2026-04-29 01:38 | -19.97590 | -43.28418 | 17699 ft | 374 kts | 84° |
| 2026-04-29 01:38 | -19.97447 | -43.25644 | 18211 ft | 377 kts | 84° |
| 2026-04-29 01:38 | -19.97290 | -43.22840 | 18707 ft | 381 kts | 84° |
| 2026-04-29 01:39 | -19.97121 | -43.20050 | 19190 ft | 385 kts | 84° |
| 2026-04-29 01:39 | -19.96948 | -43.17184 | 19663 ft | 389 kts | 84° |
| 2026-04-29 01:39 | -19.96774 | -43.14308 | 20124 ft | 394 kts | 84° |
| 2026-04-29 01:39 | -19.96599 | -43.11391 | 20584 ft | 398 kts | 84° |
| 2026-04-29 01:40 | -19.96424 | -43.08461 | 21041 ft | 402 kts | 84° |
| 2026-04-29 01:40 | -19.96243 | -43.05468 | 21508 ft | 406 kts | 83° |
| 2026-04-29 01:40 | -19.96063 | -43.02484 | 21969 ft | 410 kts | 83° |
| 2026-04-29 01:40 | -19.95944 | -42.99444 | 22426 ft | 415 kts | 86° |
| 2026-04-29 01:41 | -19.95998 | -42.96346 | 22901 ft | 420 kts | 90° |
| 2026-04-29 01:41 | -19.96233 | -42.93253 | 23382 ft | 424 kts | 94° |
| 2026-04-29 01:41 | -19.96547 | -42.90153 | 23877 ft | 427 kts | 94° |
| 2026-04-29 01:41 | -19.96877 | -42.86993 | 24386 ft | 430 kts | 94° |
| 2026-04-29 01:42 | -19.97203 | -42.83858 | 25024 ft | 428 kts | 94° |
| 2026-04-29 01:42 | -19.97522 | -42.80760 | 25696 ft | 426 kts | 94° |
| 2026-04-29 01:42 | -19.97841 | -42.77634 | 26342 ft | 424 kts | 94° |
| 2026-04-29 01:42 | -19.98156 | -42.74515 | 26974 ft | 423 kts | 94° |
| 2026-04-29 01:43 | -19.98465 | -42.71451 | 27552 ft | 422 kts | 94° |
| 2026-04-29 01:43 | -19.98779 | -42.68325 | 28070 ft | 423 kts | 94° |
| 2026-04-29 01:43 | -19.99086 | -42.65247 | 28512 ft | 426 kts | 94° |
| 2026-04-29 01:43 | -19.99402 | -42.62090 | 28937 ft | 428 kts | 94° |
| 2026-04-29 01:44 | -19.99717 | -42.58931 | 29106 ft | 431 kts | 94° |
| 2026-04-29 01:44 | -20.00032 | -42.55764 | 29108 ft | 431 kts | 94° |
| 2026-04-29 01:44 | -20.00809 | -42.49502 | 29111 ft | 432 kts | 97° |
| 2026-04-29 01:45 | -20.01763 | -42.43208 | 29120 ft | 431 kts | 97° |
| 2026-04-29 01:45 | -20.02713 | -42.36911 | 29134 ft | 431 kts | 97° |
| 2026-04-29 01:46 | -20.03655 | -42.30617 | 29147 ft | 431 kts | 97° |
| 2026-04-29 01:46 | -20.04449 | -42.25291 | 29161 ft | 432 kts | 97° |
| 2026-04-29 01:47 | -20.04469 | -42.25154 | 29161 ft | 432 kts | 97° |
| 2026-04-29 01:47 | -20.05025 | -42.21409 | 29168 ft | 431 kts | 97° |
| 2026-04-29 01:48 | -20.06075 | -42.15154 | 29174 ft | 432 kts | 99° |
| 2026-04-29 01:48 | -20.07222 | -42.08897 | 29174 ft | 431 kts | 99° |
| 2026-04-29 01:49 | -20.08356 | -42.02636 | 29174 ft | 431 kts | 99° |
| 2026-04-29 01:49 | -20.09475 | -41.96395 | 29175 ft | 431 kts | 99° |
| 2026-04-29 01:50 | -20.10586 | -41.90164 | 29168 ft | 430 kts | 99° |
| 2026-04-29 01:50 | -20.11704 | -41.83881 | 28645 ft | 433 kts | 99° |
| 2026-04-29 01:51 | -20.12258 | -41.80766 | 28051 ft | 434 kts | 99° |
| 2026-04-29 01:51 | -20.12819 | -41.77605 | 27406 ft | 435 kts | 99° |
| 2026-04-29 01:51 | -20.13374 | -41.74474 | 26772 ft | 436 kts | 99° |
| 2026-04-29 01:51 | -20.13932 | -41.71323 | 26173 ft | 435 kts | 99° |
| 2026-04-29 01:52 | -20.14491 | -41.68162 | 25554 ft | 435 kts | 99° |
| 2026-04-29 01:52 | -20.15052 | -41.64986 | 24901 ft | 436 kts | 98° |
| 2026-04-29 01:52 | -20.15609 | -41.61824 | 24226 ft | 437 kts | 98° |
| 2026-04-29 01:52 | -20.16163 | -41.58683 | 23641 ft | 435 kts | 98° |
| 2026-04-29 01:53 | -20.16719 | -41.55523 | 23153 ft | 431 kts | 98° |
| 2026-04-29 01:53 | -20.17270 | -41.52395 | 22661 ft | 428 kts | 98° |
| 2026-04-29 01:53 | -20.17813 | -41.49305 | 22172 ft | 424 kts | 98° |
| 2026-04-29 01:53 | -20.18346 | -41.46256 | 21699 ft | 421 kts | 98° |
| 2026-04-29 01:54 | -20.18879 | -41.43210 | 21226 ft | 418 kts | 98° |
| 2026-04-29 01:54 | -20.19408 | -41.40182 | 20753 ft | 414 kts | 98° |
| 2026-04-29 01:54 | -20.19935 | -41.37172 | 20274 ft | 411 kts | 98° |
| 2026-04-29 01:54 | -20.20449 | -41.34219 | 19809 ft | 407 kts | 98° |
| 2026-04-29 01:55 | -20.20971 | -41.31237 | 19331 ft | 404 kts | 98° |
| 2026-04-29 01:55 | -20.21482 | -41.28310 | 18861 ft | 400 kts | 98° |
| 2026-04-29 01:55 | -20.21982 | -41.25442 | 18400 ft | 396 kts | 99° |
| 2026-04-29 01:55 | -20.22485 | -41.22551 | 17936 ft | 393 kts | 99° |
| 2026-04-29 01:56 | -20.22980 | -41.19710 | 17471 ft | 389 kts | 99° |
| 2026-04-29 01:56 | -20.23471 | -41.16893 | 17009 ft | 386 kts | 99° |
| 2026-04-29 01:56 | -20.23954 | -41.14117 | 16547 ft | 383 kts | 98° |
| 2026-04-29 01:56 | -20.24436 | -41.11343 | 16079 ft | 380 kts | 98° |
| 2026-04-29 01:57 | -20.24911 | -41.08596 | 15612 ft | 376 kts | 98° |
| 2026-04-29 01:57 | -20.25379 | -41.05899 | 15155 ft | 373 kts | 98° |
| 2026-04-29 01:57 | -20.25847 | -41.03189 | 14695 ft | 370 kts | 98° |
| 2026-04-29 01:57 | -20.26308 | -41.00515 | 14233 ft | 367 kts | 98° |
| 2026-04-29 01:58 | -20.26767 | -40.97854 | 13772 ft | 364 kts | 98° |
| 2026-04-29 01:58 | -20.27221 | -40.95214 | 13307 ft | 361 kts | 98° |
| 2026-04-29 01:58 | -20.27666 | -40.92626 | 12855 ft | 358 kts | 98° |
| 2026-04-29 01:58 | -20.28111 | -40.90040 | 12393 ft | 355 kts | 98° |
| 2026-04-29 01:59 | -20.28552 | -40.87469 | 11940 ft | 352 kts | 98° |
| 2026-04-29 01:59 | -20.28989 | -40.84921 | 11482 ft | 349 kts | 98° |
| 2026-04-29 01:59 | -20.29425 | -40.82381 | 11023 ft | 346 kts | 98° |
| 2026-04-29 01:59 | -20.29852 | -40.79888 | 10649 ft | 340 kts | 98° |
| 2026-04-29 02:00 | -20.30265 | -40.77488 | 10459 ft | 316 kts | 98° |
| 2026-04-29 02:00 | -20.30649 | -40.75256 | 10308 ft | 290 kts | 98° |
| 2026-04-29 02:00 | -20.31000 | -40.73199 | 10184 ft | 283 kts | 98° |
| 2026-04-29 02:00 | -20.31351 | -40.71130 | 9904 ft | 283 kts | 98° |
| 2026-04-29 02:01 | -20.31700 | -40.69072 | 9529 ft | 283 kts | 98° |
| 2026-04-29 02:01 | -20.32058 | -40.66963 | 8747 ft | 294 kts | 98° |
| 2026-04-29 02:01 | -20.32418 | -40.64856 | 8281 ft | 282 kts | 98° |
| 2026-04-29 02:01 | -20.32765 | -40.62831 | 7982 ft | 276 kts | 98° |
| 2026-04-29 02:02 | -20.33105 | -40.60834 | 7998 ft | 279 kts | 98° |
| 2026-04-29 02:02 | -20.33452 | -40.58789 | 8014 ft | 279 kts | 98° |
| 2026-04-29 02:02 | -20.33799 | -40.56747 | 7808 ft | 281 kts | 98° |
| 2026-04-29 02:02 | -20.34147 | -40.54697 | 7483 ft | 279 kts | 98° |
| 2026-04-29 02:03 | -20.34494 | -40.52653 | 7144 ft | 277 kts | 98° |
| 2026-04-29 02:03 | -20.34836 | -40.50641 | 6804 ft | 276 kts | 98° |
| 2026-04-29 02:03 | -20.35201 | -40.48643 | 6462 ft | 275 kts | 104° |
| 2026-04-29 02:03 | -20.35979 | -40.46789 | 6119 ft | 276 kts | 121° |
| 2026-04-29 02:04 | -20.37165 | -40.45175 | 5793 ft | 276 kts | 128° |
| 2026-04-29 02:04 | -20.38410 | -40.43636 | 5466 ft | 274 kts | 128° |
| 2026-04-29 02:04 | -20.39664 | -40.42093 | 5134 ft | 272 kts | 128° |
| 2026-04-29 02:04 | -20.40886 | -40.40576 | 4808 ft | 271 kts | 128° |
| 2026-04-29 02:05 | -20.42120 | -40.39031 | 4473 ft | 269 kts | 128° |
| 2026-04-29 02:05 | -20.43326 | -40.37518 | 4151 ft | 267 kts | 128° |
| 2026-04-29 02:05 | -20.44331 | -40.35901 | 3971 ft | 254 kts | 104° |
| 2026-04-29 02:05 | -20.44440 | -40.34151 | 3852 ft | 239 kts | 79° |
| 2026-04-29 02:06 | -20.44164 | -40.32439 | 3697 ft | 231 kts | 78° |
| 2026-04-29 02:06 | -20.43915 | -40.30788 | 3551 ft | 223 kts | 79° |
| 2026-04-29 02:06 | -20.43686 | -40.29163 | 3407 ft | 215 kts | 79° |
| 2026-04-29 02:06 | -20.43450 | -40.27625 | 3266 ft | 205 kts | 68° |
| 2026-04-29 02:07 | -20.42681 | -40.26439 | 3121 ft | 193 kts | 32° |
| 2026-04-29 02:07 | -20.41453 | -40.25947 | 3095 ft | 184 kts | 11° |
| 2026-04-29 02:07 | -20.40199 | -40.25882 | 2858 ft | 181 kts | 360° |
| 2026-04-29 02:07 | -20.38932 | -40.26004 | 2556 ft | 179 kts | 355° |
| 2026-04-29 02:08 | -20.37711 | -40.26185 | 2302 ft | 176 kts | 354° |
| 2026-04-29 02:08 | -20.36507 | -40.26374 | 2056 ft | 171 kts | 354° |
| 2026-04-29 02:08 | -20.35359 | -40.26550 | 1818 ft | 161 kts | 355° |
| 2026-04-29 02:08 | -20.34302 | -40.26708 | 1601 ft | 148 kts | 355° |
| 2026-04-29 02:09 | -20.33294 | -40.26857 | 1401 ft | 139 kts | 355° |
| 2026-04-29 02:09 | -20.32352 | -40.26996 | 1206 ft | 135 kts | 355° |
| 2026-04-29 02:09 | -20.31425 | -40.27133 | 1016 ft | 134 kts | 354° |
| 2026-04-29 02:09 | -20.30487 | -40.27272 | 826 ft | 134 kts | 354° |
| 2026-04-29 02:10 | -20.29568 | -40.27410 | 641 ft | 133 kts | 354° |
| 2026-04-29 02:10 | -20.28641 | -40.27551 | 449 ft | 133 kts | 353° |
| 2026-04-29 02:10 | -20.27727 | -40.27689 | 245 ft | 133 kts | 353° |
| 2026-04-29 02:10 | -20.26805 | -40.27821 | 105 ft | 132 kts | 353° |
| 2026-04-29 02:11 | -20.25897 | -40.27957 | 18 ft | 123 kts | 353° |
| 2026-04-29 02:11 | -20.25207 | -40.28056 | 16 ft | 44 kts | 352° |
| 2026-04-29 02:11 | -20.25059 | -40.28112 | 15 ft | 16 kts | 322° |
| 2026-04-29 02:11 | -20.25053 | -40.28192 | 15 ft | 11 kts | 224° |
| 2026-04-29 02:12 | -20.25115 | -40.28232 | 15 ft | 10 kts | 198° |
| 2026-04-29 02:12 | -20.25193 | -40.28232 | 16 ft | 11 kts | 172° |
| 2026-04-29 02:12 | -20.25277 | -40.28220 | 16 ft | 12 kts | 173° |
| 2026-04-29 02:12 | -20.25366 | -40.28207 | 16 ft | 13 kts | 172° |
| 2026-04-29 02:13 | -20.25456 | -40.28194 | 16 ft | 11 kts | 172° |
| 2026-04-29 02:13 | -20.25540 | -40.28182 | 16 ft | 12 kts | 172° |
| 2026-04-29 02:13 | -20.25623 | -40.28169 | 16 ft | 6 kts | 172° |
| 2026-04-29 02:13 | -20.25676 | -40.28162 | 17 ft | 8 kts | 172° |
| 2026-04-29 02:14 | -20.25737 | -40.28153 | 17 ft | 9 kts | 172° |
| 2026-04-29 02:14 | -20.25802 | -40.28144 | 16 ft | 9 kts | 173° |
| 2026-04-29 02:14 | -20.25868 | -40.28136 | 16 ft | 9 kts | 172° |
| 2026-04-29 02:14 | -20.25934 | -40.28125 | 16 ft | 9 kts | 171° |
| 2026-04-29 02:15 | -20.26001 | -40.28114 | 16 ft | 9 kts | 172° |
| 2026-04-29 02:15 | -20.26068 | -40.28104 | 17 ft | 9 kts | 172° |
| 2026-04-29 02:15 | -20.26137 | -40.28094 | 17 ft | 9 kts | 172° |
| 2026-04-29 02:15 | -20.26204 | -40.28083 | 17 ft | 9 kts | 171° |
| 2026-04-29 02:16 | -20.26270 | -40.28073 | 17 ft | 9 kts | 172° |
| 2026-04-29 02:16 | -20.26337 | -40.28064 | 17 ft | 9 kts | 170° |
| 2026-04-29 02:16 | -20.26401 | -40.28056 | 17 ft | 8 kts | 191° |
| 2026-04-29 02:16 | -20.26414 | -40.28096 | 17 ft | 4 kts | 273° |
| 2026-04-29 02:17 | -20.26417 | -40.28131 | 17 ft | 4 kts | 256° |
| 2026-04-29 02:17 | -20.26423 | -40.28168 | 17 ft | 5 kts | 262° |
| 2026-04-29 02:17 | -20.26425 | -40.28184 | 17 ft | 0 kts | 262° |